This is the latest recevied weather packets stored in our database for station/object KA3ZXO. If no packets are shown the sender has not sent any weather packets the latest 10 day(s).
| Time | Temp. | Humidity | Pressure | Rain* | Wind** | Luminosity | Snow |
|---|---|---|---|---|---|---|---|
| 1778078154 | 17.78° C | 88% | 1011.6 hPa | 0 mm | - | 108 W/m² | - |
| 1778077550 | 17.78° C | 86% | 1011.5 hPa | 1.27 mm | - | 54 W/m² | - |
| 1778076945 | 18.33° C | 83% | 1011.5 hPa | 0 mm | - | 73 W/m² | - |
| 1778076341 | 18.89° C | 79% | 1011.5 hPa | 0 mm | - | 31 W/m² | - |
| 1778075741 | 19.44° C | 74% | 1011.5 hPa | 0 mm | - | 40 W/m² | - |
| 1778075139 | 19.44° C | 73% | 1011.8 hPa | 0 mm | - | 39 W/m² | - |
| 1778074538 | 19.44° C | 71% | 1011.7 hPa | 0 mm | - | 55 W/m² | - |
| 1778073938 | 19.44° C | 70% | 1011.5 hPa | 0 mm | - | 58 W/m² | - |
| 1778073338 | 19.44° C | 69% | 1011.6 hPa | 0 mm | - | 52 W/m² | - |
| 1778072737 | 19.44° C | 69% | 1011.2 hPa | 0 mm | - | 71 W/m² | - |
| 1778072133 | 19.44° C | 69% | 1011.2 hPa | 0 mm | - | 59 W/m² | - |
| 1778071528 | 19.44° C | 69% | 1011.3 hPa | 0 mm | - | 67 W/m² | - |
| 1778070923 | 18.89° C | 70% | 1011.3 hPa | 0 mm | - | 53 W/m² | - |
| 1778070323 | 18.89° C | 71% | 1011.3 hPa | 0 mm | - | 44 W/m² | - |
| 1778069719 | 18.89° C | 70% | 1011.4 hPa | 0 mm | - | 56 W/m² | - |
| 1778069119 | 18.89° C | 71% | 1011.5 hPa | 0 mm | - | 58 W/m² | - |
| 1778068520 | 18.89° C | 71% | 1011.6 hPa | 0 mm | - | 39 W/m² | - |
| 1778067915 | 18.89° C | 71% | 1011.5 hPa | 0 mm | - | 28 W/m² | - |
| 1778067311 | 18.89° C | 71% | 1011.4 hPa | 0 mm | - | 31 W/m² | - |
| 1778066711 | 18.89° C | 70% | 1011.4 hPa | 0 mm | - | 30 W/m² | - |
| 1778066106 | 18.33° C | 71% | 1011.4 hPa | 0 mm | - | 29 W/m² | - |
| 1778065507 | 17.78° C | 72% | 1011.4 hPa | 0 mm | - | 22 W/m² | - |
| 1778064905 | 17.78° C | 73% | 1011.2 hPa | 0 mm | - | 14 W/m² | - |
| 1778064300 | 17.78° C | 73% | 1011.2 hPa | 0 mm | - | 5 W/m² | - |
| 1778063701 | 17.78° C | 73% | 1011 hPa | 0 mm | - | 4 W/m² | - |
* Rain latest hour (hover to see other rain measurements)
** Current wind speed in m/s (hover to see current wind gust speed)